sensor_id;sensor_type;location;lat;lon;timestamp;P1;durP1;ratioP1;P2;durP2;ratioP2
16963;SDS011;8598;50.508;10.436;2023-01-29T00:01:09;6.93;;;5.00;;
16963;SDS011;8598;50.508;10.436;2023-01-29T00:03:36;7.10;;;5.47;;
16963;SDS011;8598;50.508;10.436;2023-01-29T00:06:03;6.77;;;4.70;;
16963;SDS011;8598;50.508;10.436;2023-01-29T00:08:33;6.37;;;5.07;;
16963;SDS011;8598;50.508;10.436;2023-01-29T00:11:00;7.63;;;5.20;;
16963;SDS011;8598;50.508;10.436;2023-01-29T00:13:27;9.13;;;5.20;;
16963;SDS011;8598;50.508;10.436;2023-01-29T00:15:54;6.67;;;5.50;;
16963;SDS011;8598;50.508;10.436;2023-01-29T00:18:22;7.03;;;4.80;;
16963;SDS011;8598;50.508;10.436;2023-01-29T00:20:49;7.53;;;5.57;;
16963;SDS011;8598;50.508;10.436;2023-01-29T00:23:16;8.03;;;5.70;;
16963;SDS011;8598;50.508;10.436;2023-01-29T00:25:44;8.43;;;5.10;;
16963;SDS011;8598;50.508;10.436;2023-01-29T00:28:11;10.07;;;5.93;;
16963;SDS011;8598;50.508;10.436;2023-01-29T00:30:39;9.97;;;6.50;;
16963;SDS011;8598;50.508;10.436;2023-01-29T00:33:06;8.97;;;6.00;;
16963;SDS011;8598;50.508;10.436;2023-01-29T00:35:33;8.80;;;5.90;;
16963;SDS011;8598;50.508;10.436;2023-01-29T00:38:00;9.60;;;6.70;;
16963;SDS011;8598;50.508;10.436;2023-01-29T00:40:26;7.40;;;5.70;;
16963;SDS011;8598;50.508;10.436;2023-01-29T00:43:14;7.90;;;5.60;;
16963;SDS011;8598;50.508;10.436;2023-01-29T00:45:58;7.97;;;6.13;;
16963;SDS011;8598;50.508;10.436;2023-01-29T00:48:25;8.63;;;6.27;;
16963;SDS011;8598;50.508;10.436;2023-01-29T00:50:52;13.13;;;8.07;;
16963;SDS011;8598;50.508;10.436;2023-01-29T00:53:18;11.60;;;6.77;;
16963;SDS011;8598;50.508;10.436;2023-01-29T00:55:45;10.20;;;7.30;;
16963;SDS011;8598;50.508;10.436;2023-01-29T00:58:11;9.30;;;6.50;;
16963;SDS011;8598;50.508;10.436;2023-01-29T01:00:39;8.70;;;6.30;;
16963;SDS011;8598;50.508;10.436;2023-01-29T01:03:06;9.23;;;6.53;;
16963;SDS011;8598;50.508;10.436;2023-01-29T01:05:31;8.43;;;6.40;;
16963;SDS011;8598;50.508;10.436;2023-01-29T01:07:58;9.00;;;5.90;;
16963;SDS011;8598;50.508;10.436;2023-01-29T01:10:26;10.30;;;7.07;;
16963;SDS011;8598;50.508;10.436;2023-01-29T01:12:54;11.03;;;7.40;;
16963;SDS011;8598;50.508;10.436;2023-01-29T01:15:23;11.73;;;7.57;;
16963;SDS011;8598;50.508;10.436;2023-01-29T01:17:53;8.90;;;6.10;;
16963;SDS011;8598;50.508;10.436;2023-01-29T01:20:20;9.27;;;6.93;;
16963;SDS011;8598;50.508;10.436;2023-01-29T01:22:47;8.87;;;6.40;;
16963;SDS011;8598;50.508;10.436;2023-01-29T01:25:14;10.03;;;6.97;;
16963;SDS011;8598;50.508;10.436;2023-01-29T01:27:41;8.43;;;5.83;;
16963;SDS011;8598;50.508;10.436;2023-01-29T01:30:09;7.40;;;5.67;;
16963;SDS011;8598;50.508;10.436;2023-01-29T01:32:38;10.13;;;5.87;;
16963;SDS011;8598;50.508;10.436;2023-01-29T01:35:07;7.97;;;5.67;;
16963;SDS011;8598;50.508;10.436;2023-01-29T01:37:34;9.50;;;5.77;;
16963;SDS011;8598;50.508;10.436;2023-01-29T01:40:02;9.20;;;6.10;;
16963;SDS011;8598;50.508;10.436;2023-01-29T01:42:30;9.27;;;6.47;;
16963;SDS011;8598;50.508;10.436;2023-01-29T01:44:57;10.03;;;6.10;;
16963;SDS011;8598;50.508;10.436;2023-01-29T01:47:32;10.40;;;5.70;;
16963;SDS011;8598;50.508;10.436;2023-01-29T01:50:04;10.07;;;5.60;;
16963;SDS011;8598;50.508;10.436;2023-01-29T01:52:36;6.70;;;5.47;;
16963;SDS011;8598;50.508;10.436;2023-01-29T01:55:07;7.43;;;5.13;;
16963;SDS011;8598;50.508;10.436;2023-01-29T01:57:37;8.13;;;5.17;;
16963;SDS011;8598;50.508;10.436;2023-01-29T02:00:05;7.67;;;5.97;;
16963;SDS011;8598;50.508;10.436;2023-01-29T02:02:36;8.30;;;6.00;;
16963;SDS011;8598;50.508;10.436;2023-01-29T02:05:22;7.43;;;6.40;;
16963;SDS011;8598;50.508;10.436;2023-01-29T02:08:07;9.30;;;5.90;;
16963;SDS011;8598;50.508;10.436;2023-01-29T02:10:52;11.07;;;6.73;;
16963;SDS011;8598;50.508;10.436;2023-01-29T02:13:19;9.77;;;6.53;;
16963;SDS011;8598;50.508;10.436;2023-01-29T02:15:46;9.37;;;5.83;;
16963;SDS011;8598;50.508;10.436;2023-01-29T02:18:14;9.47;;;6.10;;
16963;SDS011;8598;50.508;10.436;2023-01-29T02:20:46;9.17;;;6.33;;
16963;SDS011;8598;50.508;10.436;2023-01-29T02:23:23;8.63;;;5.73;;
16963;SDS011;8598;50.508;10.436;2023-01-29T02:28:58;9.27;;;5.70;;
16963;SDS011;8598;50.508;10.436;2023-01-29T02:31:47;8.83;;;6.10;;
16963;SDS011;8598;50.508;10.436;2023-01-29T02:34:24;8.10;;;5.50;;
16963;SDS011;8598;50.508;10.436;2023-01-29T02:37:16;7.17;;;5.67;;
16963;SDS011;8598;50.508;10.436;2023-01-29T02:39:45;10.30;;;5.50;;
16963;SDS011;8598;50.508;10.436;2023-01-29T02:42:20;7.83;;;5.70;;
16963;SDS011;8598;50.508;10.436;2023-01-29T02:44:54;7.53;;;5.07;;
16963;SDS011;8598;50.508;10.436;2023-01-29T02:47:25;11.40;;;6.27;;
16963;SDS011;8598;50.508;10.436;2023-01-29T02:49:59;10.40;;;5.70;;
16963;SDS011;8598;50.508;10.436;2023-01-29T02:52:32;8.60;;;5.90;;
16963;SDS011;8598;50.508;10.436;2023-01-29T02:55:08;9.30;;;6.90;;
16963;SDS011;8598;50.508;10.436;2023-01-29T02:57:38;10.57;;;6.00;;
16963;SDS011;8598;50.508;10.436;2023-01-29T03:00:10;10.97;;;6.80;;
16963;SDS011;8598;50.508;10.436;2023-01-29T03:02:42;12.57;;;6.27;;
16963;SDS011;8598;50.508;10.436;2023-01-29T03:05:13;11.87;;;6.67;;
16963;SDS011;8598;50.508;10.436;2023-01-29T03:07:44;8.20;;;6.00;;
16963;SDS011;8598;50.508;10.436;2023-01-29T03:10:18;8.57;;;5.90;;
16963;SDS011;8598;50.508;10.436;2023-01-29T03:12:50;12.00;;;6.50;;
16963;SDS011;8598;50.508;10.436;2023-01-29T03:15:23;10.60;;;6.33;;
16963;SDS011;8598;50.508;10.436;2023-01-29T03:17:54;8.90;;;5.97;;
16963;SDS011;8598;50.508;10.436;2023-01-29T03:20:26;8.70;;;6.33;;
16963;SDS011;8598;50.508;10.436;2023-01-29T03:22:58;11.07;;;6.67;;
16963;SDS011;8598;50.508;10.436;2023-01-29T03:25:27;13.10;;;6.90;;
16963;SDS011;8598;50.508;10.436;2023-01-29T03:28:14;10.10;;;5.77;;
16963;SDS011;8598;50.508;10.436;2023-01-29T03:31:03;10.83;;;5.87;;
16963;SDS011;8598;50.508;10.436;2023-01-29T03:33:51;8.93;;;6.00;;
16963;SDS011;8598;50.508;10.436;2023-01-29T03:36:25;10.20;;;5.83;;
16963;SDS011;8598;50.508;10.436;2023-01-29T03:39:02;9.73;;;6.23;;
16963;SDS011;8598;50.508;10.436;2023-01-29T03:41:30;8.00;;;5.80;;
16963;SDS011;8598;50.508;10.436;2023-01-29T03:44:04;11.70;;;6.77;;
16963;SDS011;8598;50.508;10.436;2023-01-29T03:46:40;9.87;;;6.93;;
16963;SDS011;8598;50.508;10.436;2023-01-29T03:49:14;7.63;;;5.43;;
16963;SDS011;8598;50.508;10.436;2023-01-29T03:51:49;9.33;;;6.03;;
16963;SDS011;8598;50.508;10.436;2023-01-29T03:54:22;10.20;;;5.37;;
16963;SDS011;8598;50.508;10.436;2023-01-29T03:56:54;9.57;;;5.80;;
16963;SDS011;8598;50.508;10.436;2023-01-29T03:59:29;7.63;;;5.63;;
16963;SDS011;8598;50.508;10.436;2023-01-29T04:02:03;11.37;;;6.90;;
16963;SDS011;8598;50.508;10.436;2023-01-29T04:04:34;11.47;;;7.07;;
16963;SDS011;8598;50.508;10.436;2023-01-29T04:07:03;11.03;;;6.60;;
16963;SDS011;8598;50.508;10.436;2023-01-29T04:09:36;10.70;;;6.67;;
16963;SDS011;8598;50.508;10.436;2023-01-29T04:12:07;9.07;;;5.47;;
16963;SDS011;8598;50.508;10.436;2023-01-29T04:14:36;7.73;;;5.53;;
16963;SDS011;8598;50.508;10.436;2023-01-29T04:17:06;8.97;;;5.67;;
16963;SDS011;8598;50.508;10.436;2023-01-29T04:19:36;9.97;;;5.93;;
16963;SDS011;8598;50.508;10.436;2023-01-29T04:22:05;10.90;;;6.83;;
16963;SDS011;8598;50.508;10.436;2023-01-29T04:24:36;8.80;;;6.20;;
16963;SDS011;8598;50.508;10.436;2023-01-29T04:27:11;12.27;;;6.17;;
16963;SDS011;8598;50.508;10.436;2023-01-29T04:29:49;9.20;;;6.47;;
16963;SDS011;8598;50.508;10.436;2023-01-29T04:32:27;11.23;;;6.47;;
16963;SDS011;8598;50.508;10.436;2023-01-29T04:34:59;10.00;;;6.67;;
16963;SDS011;8598;50.508;10.436;2023-01-29T04:37:34;8.70;;;5.60;;
16963;SDS011;8598;50.508;10.436;2023-01-29T04:40:08;9.80;;;6.03;;
16963;SDS011;8598;50.508;10.436;2023-01-29T04:42:43;9.93;;;6.80;;
16963;SDS011;8598;50.508;10.436;2023-01-29T04:45:17;10.50;;;6.27;;
16963;SDS011;8598;50.508;10.436;2023-01-29T04:47:53;9.50;;;6.60;;
16963;SDS011;8598;50.508;10.436;2023-01-29T04:50:27;8.87;;;5.97;;
16963;SDS011;8598;50.508;10.436;2023-01-29T04:53:01;7.67;;;5.93;;
16963;SDS011;8598;50.508;10.436;2023-01-29T04:55:35;11.50;;;7.50;;
16963;SDS011;8598;50.508;10.436;2023-01-29T04:58:07;10.47;;;6.63;;
16963;SDS011;8598;50.508;10.436;2023-01-29T05:00:40;13.17;;;6.87;;
16963;SDS011;8598;50.508;10.436;2023-01-29T05:03:09;8.93;;;6.60;;
16963;SDS011;8598;50.508;10.436;2023-01-29T05:05:38;8.67;;;5.67;;
16963;SDS011;8598;50.508;10.436;2023-01-29T05:08:07;12.27;;;6.10;;
16963;SDS011;8598;50.508;10.436;2023-01-29T05:10:37;8.60;;;5.40;;
16963;SDS011;8598;50.508;10.436;2023-01-29T05:13:05;8.10;;;5.40;;
16963;SDS011;8598;50.508;10.436;2023-01-29T05:15:37;8.57;;;5.80;;
16963;SDS011;8598;50.508;10.436;2023-01-29T05:18:05;8.23;;;4.97;;
16963;SDS011;8598;50.508;10.436;2023-01-29T05:20:36;11.93;;;6.40;;
16963;SDS011;8598;50.508;10.436;2023-01-29T05:23:07;9.33;;;6.63;;
16963;SDS011;8598;50.508;10.436;2023-01-29T05:25:35;10.00;;;5.67;;
16963;SDS011;8598;50.508;10.436;2023-01-29T05:28:02;12.03;;;5.67;;
16963;SDS011;8598;50.508;10.436;2023-01-29T05:30:28;9.13;;;6.03;;
16963;SDS011;8598;50.508;10.436;2023-01-29T05:32:55;8.63;;;5.33;;
16963;SDS011;8598;50.508;10.436;2023-01-29T05:35:22;11.50;;;5.97;;
16963;SDS011;8598;50.508;10.436;2023-01-29T05:37:50;11.07;;;6.77;;
16963;SDS011;8598;50.508;10.436;2023-01-29T05:40:17;10.20;;;6.50;;
16963;SDS011;8598;50.508;10.436;2023-01-29T05:42:43;11.17;;;6.63;;
16963;SDS011;8598;50.508;10.436;2023-01-29T05:45:10;9.60;;;6.33;;
16963;SDS011;8598;50.508;10.436;2023-01-29T05:47:37;9.20;;;6.40;;
16963;SDS011;8598;50.508;10.436;2023-01-29T05:50:03;10.63;;;6.37;;
16963;SDS011;8598;50.508;10.436;2023-01-29T05:52:31;13.03;;;7.17;;
16963;SDS011;8598;50.508;10.436;2023-01-29T05:54:58;9.57;;;6.07;;
16963;SDS011;8598;50.508;10.436;2023-01-29T05:57:25;8.73;;;5.60;;
16963;SDS011;8598;50.508;10.436;2023-01-29T05:59:52;9.63;;;5.97;;
16963;SDS011;8598;50.508;10.436;2023-01-29T06:02:18;11.27;;;6.77;;
16963;SDS011;8598;50.508;10.436;2023-01-29T06:04:45;10.93;;;6.50;;
16963;SDS011;8598;50.508;10.436;2023-01-29T06:07:11;10.87;;;6.07;;
16963;SDS011;8598;50.508;10.436;2023-01-29T06:09:38;9.80;;;5.87;;
16963;SDS011;8598;50.508;10.436;2023-01-29T06:12:06;8.70;;;6.43;;
16963;SDS011;8598;50.508;10.436;2023-01-29T06:14:33;12.30;;;6.70;;
16963;SDS011;8598;50.508;10.436;2023-01-29T06:16:59;12.43;;;7.00;;
16963;SDS011;8598;50.508;10.436;2023-01-29T06:19:26;12.37;;;6.47;;
16963;SDS011;8598;50.508;10.436;2023-01-29T06:21:52;12.23;;;6.93;;
16963;SDS011;8598;50.508;10.436;2023-01-29T06:24:19;13.73;;;7.87;;
16963;SDS011;8598;50.508;10.436;2023-01-29T06:26:46;12.77;;;7.30;;
16963;SDS011;8598;50.508;10.436;2023-01-29T06:29:14;14.00;;;6.47;;
16963;SDS011;8598;50.508;10.436;2023-01-29T06:31:40;10.00;;;6.40;;
16963;SDS011;8598;50.508;10.436;2023-01-29T06:34:07;10.23;;;6.20;;
16963;SDS011;8598;50.508;10.436;2023-01-29T06:36:34;10.10;;;6.57;;
16963;SDS011;8598;50.508;10.436;2023-01-29T06:39:00;11.33;;;6.40;;
16963;SDS011;8598;50.508;10.436;2023-01-29T06:41:27;10.50;;;6.53;;
16963;SDS011;8598;50.508;10.436;2023-01-29T06:43:54;12.20;;;7.57;;
16963;SDS011;8598;50.508;10.436;2023-01-29T06:46:22;14.23;;;7.33;;
16963;SDS011;8598;50.508;10.436;2023-01-29T06:48:48;13.20;;;7.73;;
16963;SDS011;8598;50.508;10.436;2023-01-29T06:51:15;11.77;;;6.53;;
16963;SDS011;8598;50.508;10.436;2023-01-29T06:53:42;10.57;;;6.30;;
16963;SDS011;8598;50.508;10.436;2023-01-29T06:56:09;9.67;;;7.07;;
16963;SDS011;8598;50.508;10.436;2023-01-29T06:58:35;11.10;;;7.60;;
16963;SDS011;8598;50.508;10.436;2023-01-29T07:01:03;11.60;;;7.13;;
16963;SDS011;8598;50.508;10.436;2023-01-29T07:03:31;13.67;;;7.57;;
16963;SDS011;8598;50.508;10.436;2023-01-29T07:05:58;10.47;;;7.17;;
16963;SDS011;8598;50.508;10.436;2023-01-29T07:08:25;11.33;;;7.10;;
16963;SDS011;8598;50.508;10.436;2023-01-29T07:10:52;10.30;;;6.53;;
16963;SDS011;8598;50.508;10.436;2023-01-29T07:13:23;10.80;;;5.73;;
16963;SDS011;8598;50.508;10.436;2023-01-29T07:15:50;13.00;;;6.97;;
16963;SDS011;8598;50.508;10.436;2023-01-29T07:18:17;12.27;;;7.63;;
16963;SDS011;8598;50.508;10.436;2023-01-29T07:20:44;12.83;;;7.10;;
16963;SDS011;8598;50.508;10.436;2023-01-29T07:23:12;11.07;;;5.93;;
16963;SDS011;8598;50.508;10.436;2023-01-29T07:25:39;13.50;;;6.97;;
16963;SDS011;8598;50.508;10.436;2023-01-29T07:28:06;9.37;;;6.70;;
16963;SDS011;8598;50.508;10.436;2023-01-29T07:30:33;11.07;;;6.40;;
16963;SDS011;8598;50.508;10.436;2023-01-29T07:33:00;10.53;;;6.93;;
16963;SDS011;8598;50.508;10.436;2023-01-29T07:35:28;11.13;;;5.97;;
16963;SDS011;8598;50.508;10.436;2023-01-29T07:37:56;8.50;;;5.53;;
16963;SDS011;8598;50.508;10.436;2023-01-29T07:40:23;9.83;;;5.63;;
16963;SDS011;8598;50.508;10.436;2023-01-29T07:42:49;9.90;;;6.07;;
16963;SDS011;8598;50.508;10.436;2023-01-29T07:45:16;12.13;;;6.60;;
16963;SDS011;8598;50.508;10.436;2023-01-29T07:47:42;7.27;;;5.80;;
16963;SDS011;8598;50.508;10.436;2023-01-29T07:50:09;10.57;;;5.80;;
16963;SDS011;8598;50.508;10.436;2023-01-29T07:52:36;6.67;;;4.97;;
16963;SDS011;8598;50.508;10.436;2023-01-29T07:55:05;9.37;;;6.37;;
16963;SDS011;8598;50.508;10.436;2023-01-29T07:57:32;8.20;;;5.97;;
16963;SDS011;8598;50.508;10.436;2023-01-29T07:59:58;10.67;;;6.40;;
16963;SDS011;8598;50.508;10.436;2023-01-29T08:02:25;10.03;;;5.93;;
16963;SDS011;8598;50.508;10.436;2023-01-29T08:04:51;8.07;;;5.17;;
16963;SDS011;8598;50.508;10.436;2023-01-29T08:07:18;9.47;;;6.23;;
16963;SDS011;8598;50.508;10.436;2023-01-29T08:09:45;7.97;;;5.37;;
16963;SDS011;8598;50.508;10.436;2023-01-29T08:12:13;9.40;;;5.97;;
16963;SDS011;8598;50.508;10.436;2023-01-29T08:14:39;9.90;;;6.73;;
16963;SDS011;8598;50.508;10.436;2023-01-29T08:17:06;12.17;;;6.73;;
16963;SDS011;8598;50.508;10.436;2023-01-29T08:19:33;10.13;;;5.90;;
16963;SDS011;8598;50.508;10.436;2023-01-29T08:21:59;10.37;;;6.67;;
16963;SDS011;8598;50.508;10.436;2023-01-29T08:24:26;12.80;;;6.40;;
16963;SDS011;8598;50.508;10.436;2023-01-29T08:26:52;9.50;;;5.90;;
16963;SDS011;8598;50.508;10.436;2023-01-29T08:29:20;8.30;;;5.03;;
16963;SDS011;8598;50.508;10.436;2023-01-29T08:31:47;8.37;;;6.13;;
16963;SDS011;8598;50.508;10.436;2023-01-29T08:34:14;8.47;;;5.60;;
16963;SDS011;8598;50.508;10.436;2023-01-29T08:36:40;10.00;;;6.70;;
16963;SDS011;8598;50.508;10.436;2023-01-29T08:39:07;9.87;;;5.83;;
16963;SDS011;8598;50.508;10.436;2023-01-29T08:41:34;7.97;;;5.40;;
16963;SDS011;8598;50.508;10.436;2023-01-29T08:44:01;7.40;;;5.13;;
16963;SDS011;8598;50.508;10.436;2023-01-29T08:46:29;5.77;;;4.60;;
16963;SDS011;8598;50.508;10.436;2023-01-29T08:48:57;8.20;;;5.77;;
16963;SDS011;8598;50.508;10.436;2023-01-29T08:51:23;8.77;;;5.77;;
16963;SDS011;8598;50.508;10.436;2023-01-29T08:53:50;15.20;;;10.63;;
16963;SDS011;8598;50.508;10.436;2023-01-29T08:56:17;11.10;;;8.40;;
16963;SDS011;8598;50.508;10.436;2023-01-29T08:58:43;10.77;;;8.20;;
16963;SDS011;8598;50.508;10.436;2023-01-29T09:01:11;8.10;;;6.03;;
16963;SDS011;8598;50.508;10.436;2023-01-29T09:03:40;11.17;;;6.03;;
16963;SDS011;8598;50.508;10.436;2023-01-29T09:06:08;13.13;;;6.63;;
16963;SDS011;8598;50.508;10.436;2023-01-29T09:08:35;10.43;;;5.83;;
16963;SDS011;8598;50.508;10.436;2023-01-29T09:11:02;7.83;;;5.93;;
16963;SDS011;8598;50.508;10.436;2023-01-29T09:13:29;7.13;;;5.37;;
16963;SDS011;8598;50.508;10.436;2023-01-29T09:15:57;9.17;;;5.80;;
16963;SDS011;8598;50.508;10.436;2023-01-29T09:18:25;7.70;;;5.73;;
16963;SDS011;8598;50.508;10.436;2023-01-29T09:20:53;6.73;;;5.43;;
16963;SDS011;8598;50.508;10.436;2023-01-29T09:23:19;9.30;;;5.80;;
16963;SDS011;8598;50.508;10.436;2023-01-29T09:25:46;10.33;;;5.67;;
16963;SDS011;8598;50.508;10.436;2023-01-29T09:28:13;9.30;;;6.10;;
16963;SDS011;8598;50.508;10.436;2023-01-29T09:30:41;11.40;;;6.53;;
16963;SDS011;8598;50.508;10.436;2023-01-29T09:33:08;8.47;;;5.47;;
16963;SDS011;8598;50.508;10.436;2023-01-29T09:35:35;8.63;;;6.00;;
16963;SDS011;8598;50.508;10.436;2023-01-29T09:38:03;7.70;;;5.77;;
16963;SDS011;8598;50.508;10.436;2023-01-29T09:40:30;7.13;;;5.17;;
16963;SDS011;8598;50.508;10.436;2023-01-29T09:43:01;7.43;;;5.37;;
16963;SDS011;8598;50.508;10.436;2023-01-29T09:45:31;8.50;;;5.07;;
16963;SDS011;8598;50.508;10.436;2023-01-29T09:47:59;9.30;;;5.47;;
16963;SDS011;8598;50.508;10.436;2023-01-29T09:50:35;9.53;;;5.70;;
16963;SDS011;8598;50.508;10.436;2023-01-29T09:53:09;8.87;;;6.00;;
16963;SDS011;8598;50.508;10.436;2023-01-29T09:55:42;7.53;;;5.80;;
16963;SDS011;8598;50.508;10.436;2023-01-29T09:58:15;7.33;;;5.63;;
16963;SDS011;8598;50.508;10.436;2023-01-29T10:00:47;9.97;;;7.03;;
16963;SDS011;8598;50.508;10.436;2023-01-29T10:03:22;10.13;;;6.20;;
16963;SDS011;8598;50.508;10.436;2023-01-29T10:06:14;13.87;;;8.07;;
16963;SDS011;8598;50.508;10.436;2023-01-29T10:08:54;12.67;;;7.53;;
16963;SDS011;8598;50.508;10.436;2023-01-29T10:11:42;15.73;;;7.60;;
16963;SDS011;8598;50.508;10.436;2023-01-29T10:14:19;30.57;;;12.77;;
16963;SDS011;8598;50.508;10.436;2023-01-29T10:16:58;12.37;;;7.10;;
16963;SDS011;8598;50.508;10.436;2023-01-29T10:19:48;12.57;;;7.10;;
16963;SDS011;8598;50.508;10.436;2023-01-29T10:22:28;12.20;;;5.90;;
16963;SDS011;8598;50.508;10.436;2023-01-29T10:25:13;9.13;;;7.13;;
16963;SDS011;8598;50.508;10.436;2023-01-29T10:27:45;10.63;;;6.17;;
16963;SDS011;8598;50.508;10.436;2023-01-29T10:30:20;8.50;;;5.63;;
16963;SDS011;8598;50.508;10.436;2023-01-29T10:32:56;10.20;;;6.23;;
16963;SDS011;8598;50.508;10.436;2023-01-29T10:35:27;13.60;;;8.83;;
16963;SDS011;8598;50.508;10.436;2023-01-29T10:38:00;14.53;;;10.33;;
16963;SDS011;8598;50.508;10.436;2023-01-29T10:40:42;9.70;;;6.73;;
16963;SDS011;8598;50.508;10.436;2023-01-29T10:43:15;13.57;;;7.37;;
16963;SDS011;8598;50.508;10.436;2023-01-29T10:45:48;17.93;;;11.17;;
16963;SDS011;8598;50.508;10.436;2023-01-29T10:48:43;20.97;;;11.47;;
16963;SDS011;8598;50.508;10.436;2023-01-29T10:51:21;15.00;;;9.17;;
16963;SDS011;8598;50.508;10.436;2023-01-29T10:54:00;16.83;;;10.30;;
16963;SDS011;8598;50.508;10.436;2023-01-29T10:56:42;20.63;;;12.00;;
16963;SDS011;8598;50.508;10.436;2023-01-29T10:59:22;27.33;;;15.17;;
16963;SDS011;8598;50.508;10.436;2023-01-29T11:01:59;30.77;;;16.37;;
16963;SDS011;8598;50.508;10.436;2023-01-29T11:04:27;33.73;;;16.70;;
16963;SDS011;8598;50.508;10.436;2023-01-29T11:06:55;25.37;;;14.00;;
16963;SDS011;8598;50.508;10.436;2023-01-29T11:09:25;16.93;;;8.57;;
16963;SDS011;8598;50.508;10.436;2023-01-29T11:11:58;12.60;;;6.93;;
16963;SDS011;8598;50.508;10.436;2023-01-29T11:14:28;14.60;;;7.90;;
16963;SDS011;8598;50.508;10.436;2023-01-29T11:16:58;12.37;;;7.67;;
16963;SDS011;8598;50.508;10.436;2023-01-29T11:19:35;13.50;;;7.93;;
16963;SDS011;8598;50.508;10.436;2023-01-29T11:22:02;16.90;;;8.43;;
16963;SDS011;8598;50.508;10.436;2023-01-29T11:24:29;15.87;;;9.10;;
16963;SDS011;8598;50.508;10.436;2023-01-29T11:26:58;12.90;;;7.67;;
16963;SDS011;8598;50.508;10.436;2023-01-29T11:29:36;11.87;;;7.07;;
16963;SDS011;8598;50.508;10.436;2023-01-29T11:32:06;14.43;;;8.87;;
16963;SDS011;8598;50.508;10.436;2023-01-29T11:37:22;15.93;;;9.07;;
16963;SDS011;8598;50.508;10.436;2023-01-29T11:39:52;14.03;;;8.80;;
16963;SDS011;8598;50.508;10.436;2023-01-29T11:42:20;14.30;;;7.50;;
16963;SDS011;8598;50.508;10.436;2023-01-29T11:44:48;11.33;;;7.60;;
16963;SDS011;8598;50.508;10.436;2023-01-29T11:47:17;13.23;;;7.93;;
16963;SDS011;8598;50.508;10.436;2023-01-29T11:49:48;15.87;;;9.50;;
16963;SDS011;8598;50.508;10.436;2023-01-29T11:52:17;13.83;;;8.30;;
16963;SDS011;8598;50.508;10.436;2023-01-29T11:54:48;12.20;;;7.57;;
16963;SDS011;8598;50.508;10.436;2023-01-29T11:57:22;15.50;;;8.43;;
16963;SDS011;8598;50.508;10.436;2023-01-29T11:59:52;15.00;;;8.53;;
16963;SDS011;8598;50.508;10.436;2023-01-29T12:02:28;12.57;;;8.03;;
16963;SDS011;8598;50.508;10.436;2023-01-29T12:05:00;16.93;;;8.87;;
16963;SDS011;8598;50.508;10.436;2023-01-29T12:07:29;15.83;;;9.20;;
16963;SDS011;8598;50.508;10.436;2023-01-29T12:09:57;11.27;;;7.63;;
16963;SDS011;8598;50.508;10.436;2023-01-29T12:12:33;17.87;;;10.33;;
16963;SDS011;8598;50.508;10.436;2023-01-29T12:15:16;19.70;;;10.23;;
16963;SDS011;8598;50.508;10.436;2023-01-29T12:17:49;21.33;;;11.17;;
16963;SDS011;8598;50.508;10.436;2023-01-29T12:20:27;16.70;;;10.40;;
16963;SDS011;8598;50.508;10.436;2023-01-29T12:23:01;13.57;;;8.57;;
16963;SDS011;8598;50.508;10.436;2023-01-29T12:25:35;15.23;;;8.67;;
16963;SDS011;8598;50.508;10.436;2023-01-29T12:28:11;17.20;;;9.43;;
16963;SDS011;8598;50.508;10.436;2023-01-29T12:30:54;19.47;;;12.20;;
16963;SDS011;8598;50.508;10.436;2023-01-29T12:33:35;17.33;;;7.77;;
16963;SDS011;8598;50.508;10.436;2023-01-29T12:36:09;12.23;;;8.40;;
16963;SDS011;8598;50.508;10.436;2023-01-29T12:38:42;12.50;;;8.20;;
16963;SDS011;8598;50.508;10.436;2023-01-29T12:41:14;12.30;;;7.97;;
16963;SDS011;8598;50.508;10.436;2023-01-29T12:44:00;12.37;;;7.53;;
16963;SDS011;8598;50.508;10.436;2023-01-29T12:46:31;13.63;;;8.03;;
16963;SDS011;8598;50.508;10.436;2023-01-29T12:49:02;14.83;;;9.90;;
16963;SDS011;8598;50.508;10.436;2023-01-29T12:51:36;18.90;;;9.97;;
16963;SDS011;8598;50.508;10.436;2023-01-29T12:54:06;12.83;;;8.80;;
16963;SDS011;8598;50.508;10.436;2023-01-29T12:56:35;12.67;;;7.90;;
16963;SDS011;8598;50.508;10.436;2023-01-29T12:59:12;10.07;;;6.97;;
16963;SDS011;8598;50.508;10.436;2023-01-29T13:01:44;16.83;;;8.60;;
16963;SDS011;8598;50.508;10.436;2023-01-29T13:04:15;13.33;;;8.53;;
16963;SDS011;8598;50.508;10.436;2023-01-29T13:06:48;12.57;;;8.27;;
16963;SDS011;8598;50.508;10.436;2023-01-29T13:09:19;13.57;;;8.43;;
16963;SDS011;8598;50.508;10.436;2023-01-29T13:11:49;13.13;;;7.03;;
16963;SDS011;8598;50.508;10.436;2023-01-29T13:14:21;11.07;;;7.23;;
16963;SDS011;8598;50.508;10.436;2023-01-29T13:16:51;12.10;;;7.40;;
16963;SDS011;8598;50.508;10.436;2023-01-29T13:19:23;12.27;;;7.60;;
16963;SDS011;8598;50.508;10.436;2023-01-29T13:21:53;10.53;;;6.67;;
16963;SDS011;8598;50.508;10.436;2023-01-29T13:24:22;11.83;;;6.73;;
16963;SDS011;8598;50.508;10.436;2023-01-29T13:26:51;11.80;;;7.33;;
16963;SDS011;8598;50.508;10.436;2023-01-29T13:29:21;18.27;;;9.73;;
16963;SDS011;8598;50.508;10.436;2023-01-29T13:31:49;22.50;;;12.27;;
16963;SDS011;8598;50.508;10.436;2023-01-29T13:34:19;31.40;;;18.33;;
16963;SDS011;8598;50.508;10.436;2023-01-29T13:36:48;22.17;;;12.87;;
16963;SDS011;8598;50.508;10.436;2023-01-29T13:39:24;22.07;;;14.23;;
16963;SDS011;8598;50.508;10.436;2023-01-29T13:41:54;23.63;;;13.83;;
16963;SDS011;8598;50.508;10.436;2023-01-29T13:44:24;27.10;;;16.13;;
16963;SDS011;8598;50.508;10.436;2023-01-29T13:46:54;20.27;;;13.43;;
16963;SDS011;8598;50.508;10.436;2023-01-29T13:49:27;23.10;;;14.20;;
16963;SDS011;8598;50.508;10.436;2023-01-29T13:52:13;27.43;;;15.87;;
16963;SDS011;8598;50.508;10.436;2023-01-29T13:54:48;15.73;;;10.90;;
16963;SDS011;8598;50.508;10.436;2023-01-29T14:03:41;14.20;;;9.10;;
16963;SDS011;8598;50.508;10.436;2023-01-29T14:06:08;11.80;;;7.67;;
16963;SDS011;8598;50.508;10.436;2023-01-29T14:08:36;14.93;;;8.93;;
16963;SDS011;8598;50.508;10.436;2023-01-29T14:13:58;48.87;;;22.13;;
16963;SDS011;8598;50.508;10.436;2023-01-29T14:16:27;26.83;;;15.07;;
16963;SDS011;8598;50.508;10.436;2023-01-29T14:19:01;23.97;;;13.67;;
16963;SDS011;8598;50.508;10.436;2023-01-29T14:21:30;13.73;;;8.90;;
16963;SDS011;8598;50.508;10.436;2023-01-29T14:23:59;23.43;;;12.63;;
16963;SDS011;8598;50.508;10.436;2023-01-29T14:26:39;17.90;;;9.73;;
16963;SDS011;8598;50.508;10.436;2023-01-29T14:29:16;15.63;;;8.97;;
16963;SDS011;8598;50.508;10.436;2023-01-29T14:31:46;15.30;;;9.63;;
16963;SDS011;8598;50.508;10.436;2023-01-29T14:34:24;11.17;;;8.37;;
16963;SDS011;8598;50.508;10.436;2023-01-29T14:36:54;19.17;;;11.10;;
16963;SDS011;8598;50.508;10.436;2023-01-29T14:39:27;14.97;;;9.40;;
16963;SDS011;8598;50.508;10.436;2023-01-29T14:42:03;16.97;;;10.37;;
16963;SDS011;8598;50.508;10.436;2023-01-29T14:44:45;17.40;;;10.50;;
16963;SDS011;8598;50.508;10.436;2023-01-29T14:47:18;14.57;;;9.70;;
16963;SDS011;8598;50.508;10.436;2023-01-29T14:49:52;19.17;;;11.13;;
16963;SDS011;8598;50.508;10.436;2023-01-29T14:52:20;22.67;;;11.73;;
16963;SDS011;8598;50.508;10.436;2023-01-29T14:54:51;22.50;;;13.60;;
16963;SDS011;8598;50.508;10.436;2023-01-29T14:57:22;22.90;;;14.70;;
16963;SDS011;8598;50.508;10.436;2023-01-29T14:59:52;28.37;;;13.43;;
16963;SDS011;8598;50.508;10.436;2023-01-29T15:02:22;43.13;;;18.50;;
16963;SDS011;8598;50.508;10.436;2023-01-29T15:04:53;53.80;;;22.17;;
16963;SDS011;8598;50.508;10.436;2023-01-29T15:07:24;90.53;;;34.87;;
16963;SDS011;8598;50.508;10.436;2023-01-29T15:09:56;61.30;;;25.57;;
16963;SDS011;8598;50.508;10.436;2023-01-29T15:12:30;78.27;;;25.10;;
16963;SDS011;8598;50.508;10.436;2023-01-29T15:15:02;95.63;;;30.80;;